createdAt,value
2022-08-16T00:01:24.447Z,93.20
2022-08-16T00:03:53.750Z,93.40
2022-08-16T00:06:21.765Z,93.60
2022-08-16T00:08:49.997Z,93.60
2022-08-16T00:11:20.971Z,93.70
2022-08-16T00:13:53.451Z,93.80
2022-08-16T00:17:05.923Z,94.00
2022-08-16T00:19:15.760Z,94.00
2022-08-16T00:21:44.524Z,94.00
2022-08-16T00:24:13.449Z,94.10
2022-08-16T00:26:58.422Z,94.10
2022-08-16T00:29:25.570Z,94.10
2022-08-16T00:32:00.090Z,94.10
2022-08-16T00:34:41.906Z,94.30
2022-08-16T00:37:17.230Z,94.50
2022-08-16T00:39:56.992Z,94.50
2022-08-16T00:42:30.053Z,94.50
2022-08-16T00:45:09.768Z,94.40
2022-08-16T00:47:49.222Z,94.50
2022-08-16T00:50:36.255Z,94.50
2022-08-16T00:53:07.353Z,94.30
2022-08-16T00:55:38.291Z,94.20
2022-08-16T00:58:13.087Z,94.20
2022-08-16T01:00:45.593Z,94.20
2022-08-16T01:03:30.369Z,94.30
2022-08-16T01:05:59.376Z,94.40
2022-08-16T01:08:36.278Z,94.40
2022-08-16T01:11:05.512Z,94.40
2022-08-16T01:13:37.219Z,94.30
2022-08-16T01:16:12.930Z,94.30
2022-08-16T01:18:59.204Z,94.30
2022-08-16T01:21:52.583Z,94.10
2022-08-16T01:24:51.552Z,94.30
2022-08-16T01:27:30.966Z,94.10
2022-08-16T01:30:18.073Z,94.10
2022-08-16T01:33:01.570Z,94.00
2022-08-16T01:35:46.360Z,94.00
2022-08-16T01:38:35.558Z,94.00
2022-08-16T01:41:09.503Z,94.10
2022-08-16T01:43:40.264Z,94.20
2022-08-16T01:46:29.801Z,94.10
2022-08-16T01:49:36.004Z,94.10
2022-08-16T01:52:28.017Z,94.30
2022-08-16T01:55:05.363Z,93.90
2022-08-16T01:57:35.600Z,94.10
2022-08-16T02:00:19.565Z,94.00
2022-08-16T02:02:46.884Z,94.20
2022-08-16T02:05:21.160Z,94.00
2022-08-16T02:07:52.022Z,94.10
2022-08-16T02:10:20.862Z,94.10
2022-08-16T02:12:55.741Z,94.10
2022-08-16T02:15:28.218Z,94.10
2022-08-16T02:18:01.414Z,94.20
2022-08-16T02:20:35.143Z,94.00
2022-08-16T02:23:05.922Z,94.10
2022-08-16T02:25:52.267Z,94.00
2022-08-16T02:28:23.558Z,94.00
2022-08-16T02:30:53.288Z,94.10
2022-08-16T02:33:24.359Z,94.10
2022-08-16T02:36:15.209Z,94.10
2022-08-16T02:39:04.463Z,94.00
2022-08-16T02:41:31.470Z,94.40
2022-08-16T02:44:01.141Z,94.10
2022-08-16T02:46:30.006Z,94.40
2022-08-16T02:49:03.316Z,94.20
2022-08-16T02:51:33.820Z,94.20
2022-08-16T02:54:03.148Z,94.20
2022-08-16T02:56:32.086Z,94.20
2022-08-16T02:58:59.426Z,94.20
2022-08-16T03:01:36.630Z,94.10
2022-08-16T03:04:28.910Z,94.10
2022-08-16T03:06:57.936Z,94.00
2022-08-16T03:09:41.357Z,94.10
2022-08-16T03:12:11.752Z,94.10
2022-08-16T03:14:43.748Z,94.10
2022-08-16T03:17:11.203Z,94.00
2022-08-16T03:19:47.903Z,94.40
2022-08-16T03:22:28.403Z,94.10
2022-08-16T03:25:01.226Z,94.00
2022-08-16T03:27:32.791Z,94.10
2022-08-16T03:30:17.412Z,94.10
2022-08-16T03:32:55.799Z,94.10
2022-08-16T03:35:32.620Z,94.00
2022-08-16T03:38:33.714Z,94.10
2022-08-16T03:40:56.127Z,94.10
2022-08-16T03:43:51.543Z,94.10
2022-08-16T03:46:44.481Z,94.00
2022-08-16T03:49:03.030Z,94.00
2022-08-16T03:51:30.465Z,94.10
2022-08-16T03:54:03.455Z,94.20
2022-08-16T03:56:56.724Z,94.30
2022-08-16T03:59:29.747Z,94.30
2022-08-16T04:02:02.020Z,94.30
2022-08-16T04:04:33.430Z,94.50
2022-08-16T04:07:05.812Z,94.40
2022-08-16T04:09:38.101Z,94.40
2022-08-16T04:12:10.652Z,94.50
2022-08-16T04:14:46.773Z,94.70
2022-08-16T04:17:17.132Z,94.70
2022-08-16T04:19:45.435Z,94.70
2022-08-16T04:22:17.271Z,94.70
2022-08-16T04:24:55.327Z,94.70
2022-08-16T04:27:29.012Z,94.70
2022-08-16T04:30:03.052Z,94.70
2022-08-16T04:32:35.527Z,94.80
2022-08-16T04:35:12.368Z,94.80
2022-08-16T04:37:44.954Z,94.80
2022-08-16T04:40:20.531Z,94.90
2022-08-16T04:42:50.402Z,95.00
2022-08-16T04:45:18.643Z,95.10
2022-08-16T04:48:05.897Z,95.30
2022-08-16T04:50:43.562Z,95.30
2022-08-16T04:53:15.885Z,95.40
2022-08-16T04:55:45.251Z,95.50
2022-08-16T04:58:44.763Z,95.60
2022-08-16T05:01:01.901Z,95.50
2022-08-16T05:03:31.052Z,95.50
2022-08-16T05:05:59.724Z,95.30
2022-08-16T05:08:32.804Z,95.20
2022-08-16T05:11:16.928Z,95.20
2022-08-16T05:13:47.513Z,95.20
2022-08-16T05:16:30.115Z,95.20
2022-08-16T05:19:11.599Z,95.20
2022-08-16T05:21:47.623Z,95.10
2022-08-16T05:24:14.565Z,95.10
2022-08-16T05:26:51.911Z,95.00
2022-08-16T05:29:20.622Z,94.90
2022-08-16T05:32:01.467Z,94.80
2022-08-16T05:34:29.228Z,94.80
2022-08-16T05:36:57.463Z,94.80
2022-08-16T05:39:33.362Z,94.80
2022-08-16T05:42:04.848Z,94.80
2022-08-16T05:44:32.556Z,94.90
2022-08-16T05:47:02.051Z,94.80
2022-08-16T05:49:39.890Z,94.70
2022-08-16T05:52:13.684Z,94.80
2022-08-16T05:54:47.569Z,94.70
2022-08-16T05:57:20.657Z,94.30
2022-08-16T05:59:50.736Z,94.30
2022-08-16T06:02:33.491Z,94.30
2022-08-16T06:05:02.246Z,94.30
2022-08-16T06:07:31.919Z,94.30
2022-08-16T06:10:09.684Z,94.20
2022-08-16T06:12:37.464Z,94.00
2022-08-16T06:15:11.982Z,93.80
2022-08-16T06:17:44.327Z,93.60
2022-08-16T06:20:35.466Z,93.30
2022-08-16T06:23:20.029Z,93.30
2022-08-16T06:25:59.408Z,93.30
2022-08-16T06:28:36.443Z,93.50
2022-08-16T06:31:12.079Z,93.60
2022-08-16T06:33:42.331Z,93.50
2022-08-16T06:36:14.762Z,93.70
2022-08-16T06:38:55.450Z,93.40
2022-08-16T06:41:29.339Z,93.20
2022-08-16T06:44:21.093Z,93.30
2022-08-16T06:46:53.778Z,93.40
2022-08-16T06:49:21.180Z,93.40
2022-08-16T06:51:48.996Z,93.50
2022-08-16T06:54:21.740Z,93.20
2022-08-16T06:56:52.368Z,93.30
2022-08-16T06:59:25.539Z,92.90
2022-08-16T07:01:58.299Z,92.80
2022-08-16T07:04:31.882Z,92.60
2022-08-16T07:07:01.913Z,92.60
2022-08-16T07:09:30.605Z,92.60
2022-08-16T07:12:05.393Z,92.70
2022-08-16T07:14:35.373Z,92.20
2022-08-16T07:17:08.200Z,92.00
2022-08-16T07:20:29.320Z,92.30
2022-08-16T07:22:52.962Z,91.80
2022-08-16T07:25:24.969Z,92.00
2022-08-16T07:27:52.859Z,91.10
2022-08-16T07:30:46.003Z,91.20
2022-08-16T07:33:52.005Z,91.30
2022-08-16T07:36:07.622Z,91.00
2022-08-16T07:38:41.364Z,90.40
2022-08-16T07:41:09.632Z,90.30
2022-08-16T07:43:40.545Z,90.20
2022-08-16T07:46:39.276Z,89.70
2022-08-16T07:49:02.360Z,90.20
2022-08-16T07:51:37.022Z,90.10
2022-08-16T07:54:11.447Z,90.20
2022-08-16T07:56:48.368Z,89.20
2022-08-16T07:59:16.167Z,89.60
2022-08-16T08:01:43.643Z,88.60
2022-08-16T08:04:13.149Z,89.10
2022-08-16T08:06:42.456Z,87.90
2022-08-16T08:09:16.238Z,88.60
2022-08-16T08:12:01.068Z,88.40
2022-08-16T08:14:29.403Z,88.80
2022-08-16T08:16:59.025Z,87.20
2022-08-16T08:19:30.148Z,87.10
2022-08-16T08:22:00.705Z,86.60
2022-08-16T08:24:53.366Z,86.40
2022-08-16T08:27:26.588Z,85.90
2022-08-16T08:30:50.537Z,85.00
2022-08-16T08:32:51.167Z,84.90
2022-08-16T08:35:28.728Z,84.90
2022-08-16T08:37:58.453Z,85.10
2022-08-16T08:40:29.593Z,84.50
2022-08-16T08:43:00.442Z,84.60
2022-08-16T08:45:48.381Z,84.30
2022-08-16T08:48:35.091Z,83.70
2022-08-16T08:51:11.140Z,84.20
2022-08-16T08:53:58.021Z,83.70
2022-08-16T08:56:32.459Z,83.50
2022-08-16T08:59:26.007Z,83.20
2022-08-16T09:01:57.032Z,82.40
2022-08-16T09:04:28.558Z,80.90
2022-08-16T09:06:58.384Z,81.30
2022-08-16T09:09:33.411Z,82.10
2022-08-16T09:12:06.189Z,82.00
2022-08-16T09:14:49.347Z,81.30
2022-08-16T09:17:38.221Z,80.80
2022-08-16T09:20:07.957Z,80.20
2022-08-16T09:22:34.976Z,79.40
2022-08-16T09:25:09.919Z,79.80
2022-08-16T09:27:57.369Z,80.10
2022-08-16T09:30:33.655Z,80.60
2022-08-16T09:33:06.814Z,79.80
2022-08-16T09:35:38.674Z,79.90
2022-08-16T09:38:08.637Z,79.90
2022-08-16T09:40:43.354Z,79.00
2022-08-16T09:43:37.768Z,78.30
2022-08-16T09:46:04.015Z,77.10
2022-08-16T09:48:52.888Z,76.20
2022-08-16T09:51:26.284Z,74.80
2022-08-16T09:53:57.899Z,74.10
2022-08-16T09:56:35.338Z,73.90
2022-08-16T09:59:07.951Z,73.00
2022-08-16T10:01:43.488Z,72.80
2022-08-16T10:04:30.257Z,71.90
2022-08-16T10:09:45.274Z,71.80
2022-08-16T10:12:42.435Z,72.70
2022-08-16T10:15:16.622Z,72.50
2022-08-16T10:18:00.232Z,72.10
2022-08-16T10:20:32.491Z,70.30
2022-08-16T10:23:06.936Z,71.10
2022-08-16T10:27:21.946Z,71.60
2022-08-16T10:28:39.098Z,70.20
2022-08-16T10:31:14.498Z,70.60
2022-08-16T10:33:44.227Z,70.20
2022-08-16T10:36:39.333Z,69.20
2022-08-16T10:39:00.897Z,68.50
2022-08-16T10:41:28.945Z,68.50
2022-08-16T10:43:56.720Z,68.00
2022-08-16T10:46:33.640Z,68.00
2022-08-16T10:49:01.470Z,67.80
2022-08-16T10:51:34.483Z,67.20
2022-08-16T10:54:28.648Z,67.30
2022-08-16T10:56:57.108Z,66.30
2022-08-16T10:59:32.905Z,65.50
2022-08-16T11:02:57.559Z,65.90
2022-08-16T11:05:08.761Z,66.40
2022-08-16T11:07:51.951Z,65.10
2022-08-16T11:16:26.786Z,65.00
2022-08-16T11:19:05.307Z,65.00
2022-08-16T11:22:23.274Z,65.60
2022-08-16T11:24:39.499Z,65.20
2022-08-16T11:27:32.774Z,65.70
2022-08-16T11:29:57.037Z,64.70
2022-08-16T11:32:31.494Z,64.20
2022-08-16T11:35:13.529Z,64.20
2022-08-16T11:40:46.911Z,63.60
2022-08-16T11:43:23.743Z,62.70
2022-08-16T11:45:54.684Z,62.50
2022-08-16T11:48:25.602Z,62.40
2022-08-16T11:50:53.145Z,62.40
2022-08-16T11:53:21.902Z,62.40
2022-08-16T11:55:54.772Z,62.90
2022-08-16T11:58:24.681Z,62.80
2022-08-16T12:00:55.628Z,62.80
2022-08-16T12:03:31.428Z,63.70
2022-08-16T12:06:30.334Z,62.70
2022-08-16T12:09:02.189Z,62.10
2022-08-16T12:11:31.580Z,61.60
2022-08-16T12:14:01.985Z,61.10
2022-08-16T12:16:34.483Z,61.10
2022-08-16T12:19:10.745Z,60.50
2022-08-16T12:21:58.837Z,60.20
2022-08-16T12:24:27.142Z,59.50
2022-08-16T12:26:54.549Z,59.90
2022-08-16T12:29:22.378Z,60.10
2022-08-16T12:32:01.586Z,59.90
2022-08-16T12:34:47.977Z,59.20
2022-08-16T12:37:18.156Z,58.40
2022-08-16T12:39:50.614Z,58.70
2022-08-16T12:42:19.390Z,59.00
2022-08-16T12:44:49.056Z,58.80
2022-08-16T12:47:37.257Z,58.90
2022-08-16T12:50:10.529Z,58.60
2022-08-16T12:52:53.001Z,58.30
2022-08-16T12:55:22.117Z,57.80
2022-08-16T12:57:58.406Z,57.90
2022-08-16T13:00:33.037Z,57.60
2022-08-16T13:03:03.375Z,57.60
2022-08-16T13:08:03.792Z,57.30
2022-08-16T13:10:36.829Z,56.40
2022-08-16T13:13:07.044Z,56.30
2022-08-16T13:15:51.617Z,56.30
2022-08-16T13:18:34.057Z,56.40
2022-08-16T13:21:05.023Z,56.20
2022-08-16T13:23:33.214Z,55.90
2022-08-16T13:26:00.527Z,55.80
2022-08-16T13:28:27.644Z,56.10
2022-08-16T13:30:56.804Z,56.10
2022-08-16T13:33:36.816Z,55.60
2022-08-16T13:36:17.101Z,55.90
2022-08-16T13:38:55.640Z,55.10
2022-08-16T13:41:24.203Z,54.80
2022-08-16T13:43:57.859Z,54.10
2022-08-16T13:46:27.290Z,54.40
2022-08-16T13:48:56.031Z,54.20
2022-08-16T13:51:25.223Z,54.90
2022-08-16T13:54:02.800Z,55.20
2022-08-16T13:56:37.875Z,54.30
2022-08-16T13:59:20.543Z,54.50
2022-08-16T14:01:55.890Z,54.50
2022-08-16T14:04:39.249Z,55.00
2022-08-16T14:07:11.335Z,54.30
2022-08-16T14:09:39.431Z,54.10
2022-08-16T14:12:29.387Z,53.60
2022-08-16T14:14:57.573Z,52.00
2022-08-16T14:17:26.570Z,52.30
2022-08-16T14:19:54.585Z,52.60
2022-08-16T14:22:42.353Z,52.90
2022-08-16T14:25:18.994Z,52.10
2022-08-16T14:27:46.628Z,52.40
2022-08-16T14:30:17.701Z,52.70
2022-08-16T14:32:46.756Z,52.60
2022-08-16T14:35:36.340Z,53.10
2022-08-16T14:38:04.802Z,52.90
2022-08-16T14:40:32.896Z,53.20
2022-08-16T14:43:07.324Z,51.90
2022-08-16T14:45:34.585Z,51.60
2022-08-16T14:48:01.502Z,51.60
2022-08-16T14:50:28.692Z,51.40
2022-08-16T14:53:01.182Z,51.40
2022-08-16T14:55:33.485Z,50.90
2022-08-16T14:58:05.815Z,51.60
2022-08-16T15:00:37.427Z,51.50
2022-08-16T15:03:09.664Z,51.30
2022-08-16T15:05:39.750Z,51.00
2022-08-16T15:08:06.934Z,51.20
2022-08-16T15:10:34.984Z,51.60
2022-08-16T15:13:09.561Z,51.90
2022-08-16T15:15:38.758Z,51.00
2022-08-16T15:18:11.747Z,51.30
2022-08-16T15:20:41.087Z,50.30
2022-08-16T15:23:09.968Z,50.50
2022-08-16T15:25:44.560Z,50.60
2022-08-16T15:28:30.958Z,49.60
2022-08-16T15:31:03.954Z,50.50
2022-08-16T15:33:42.709Z,50.40
2022-08-16T15:36:17.946Z,49.70
2022-08-16T15:39:02.916Z,50.00
2022-08-16T15:41:42.609Z,49.60
2022-08-16T15:44:22.393Z,50.10
2022-08-16T15:46:55.836Z,50.40
2022-08-16T15:49:34.687Z,50.60
2022-08-16T15:52:14.337Z,50.80
2022-08-16T15:54:53.527Z,50.70
2022-08-16T15:57:24.609Z,50.70
2022-08-16T15:59:56.152Z,50.80
2022-08-16T16:02:38.790Z,50.60
2022-08-16T16:05:11.188Z,50.70
2022-08-16T16:07:56.430Z,50.40
2022-08-16T16:10:29.833Z,50.30
2022-08-16T16:13:00.503Z,50.70
2022-08-16T16:15:31.646Z,51.00
2022-08-16T16:17:59.006Z,50.00
2022-08-16T16:20:35.548Z,50.10
2022-08-16T16:23:10.352Z,49.80
2022-08-16T16:25:44.022Z,50.30
2022-08-16T16:28:45.924Z,50.60
2022-08-16T16:31:12.484Z,49.60
2022-08-16T16:33:44.384Z,50.80
2022-08-16T16:36:17.212Z,49.60
2022-08-16T16:38:48.817Z,49.90
2022-08-16T16:41:23.336Z,50.50
2022-08-16T16:43:53.453Z,50.50
2022-08-16T16:46:42.396Z,50.40
2022-08-16T16:49:14.113Z,50.80
2022-08-16T16:51:44.666Z,50.50
2022-08-16T16:54:13.308Z,50.50
2022-08-16T16:56:49.759Z,49.80
2022-08-16T16:59:19.927Z,49.00
2022-08-16T17:02:00.495Z,49.20
2022-08-16T17:04:36.809Z,48.70
2022-08-16T17:07:03.886Z,48.40
2022-08-16T17:09:40.250Z,48.50
2022-08-16T17:12:09.062Z,48.50
2022-08-16T17:14:38.460Z,47.90
2022-08-16T17:17:11.562Z,47.70
2022-08-16T17:19:42.578Z,47.50
2022-08-16T17:22:16.086Z,47.50
2022-08-16T17:24:52.667Z,47.50
2022-08-16T17:27:33.821Z,46.70
2022-08-16T17:30:14.822Z,46.40
2022-08-16T17:32:50.096Z,46.70
2022-08-16T17:35:23.040Z,47.30
2022-08-16T17:37:51.720Z,47.60
2022-08-16T17:40:47.511Z,48.00
2022-08-16T17:43:17.190Z,48.20
2022-08-16T17:45:44.217Z,48.70
2022-08-16T17:48:11.772Z,49.10
2022-08-16T17:50:40.274Z,49.50
2022-08-16T17:53:07.771Z,49.70
2022-08-16T17:55:38.612Z,49.90
2022-08-16T17:58:10.539Z,50.30
2022-08-16T18:00:52.228Z,50.40
2022-08-16T18:04:02.810Z,50.90
2022-08-16T18:06:25.464Z,51.40
2022-08-16T18:09:01.765Z,51.90
2022-08-16T18:11:30.137Z,52.10
2022-08-16T18:14:00.484Z,52.20
2022-08-16T18:16:27.658Z,52.30
2022-08-16T18:18:54.560Z,52.60
2022-08-16T18:21:40.523Z,52.80
2022-08-16T18:24:08.744Z,53.20
2022-08-16T18:26:36.111Z,53.50
2022-08-16T18:29:03.276Z,53.80
2022-08-16T18:31:30.335Z,54.10
2022-08-16T18:33:57.225Z,54.30
2022-08-16T18:36:25.536Z,54.80
2022-08-16T18:38:54.015Z,55.30
2022-08-16T18:41:24.922Z,55.60
2022-08-16T18:44:22.289Z,55.80
2022-08-16T18:46:43.712Z,55.90
2022-08-16T18:49:13.247Z,56.00
2022-08-16T18:51:45.225Z,56.10
2022-08-16T18:54:17.843Z,56.50
2022-08-16T18:56:56.372Z,56.80
2022-08-16T18:59:27.758Z,56.90
2022-08-16T19:02:00.215Z,57.10
2022-08-16T19:04:50.348Z,57.20
2022-08-16T19:07:23.190Z,57.40
2022-08-16T19:10:01.777Z,57.50
2022-08-16T19:12:47.154Z,57.70
2022-08-16T19:15:22.827Z,58.00
2022-08-16T19:17:49.943Z,58.20
2022-08-16T19:20:20.606Z,58.40
2022-08-16T19:23:05.453Z,58.70
2022-08-16T19:25:48.697Z,59.00
2022-08-16T19:28:50.994Z,59.60
2022-08-16T19:31:31.096Z,60.10
2022-08-16T19:33:58.325Z,59.70
2022-08-16T19:36:37.902Z,59.70
2022-08-16T19:39:13.685Z,60.10
2022-08-16T19:41:53.341Z,59.80
2022-08-16T19:44:22.320Z,60.20
2022-08-16T19:46:49.570Z,60.20
2022-08-16T19:49:17.064Z,60.40
2022-08-16T19:51:48.285Z,60.40
2022-08-16T19:54:15.696Z,60.50
2022-08-16T19:56:42.619Z,60.70
2022-08-16T19:59:19.357Z,60.80
2022-08-16T20:01:50.030Z,60.90
2022-08-16T20:04:17.046Z,61.10
2022-08-16T20:06:43.961Z,61.40
2022-08-16T20:09:12.624Z,61.80
2022-08-16T20:11:46.704Z,62.30
2022-08-16T20:14:23.960Z,62.60
2022-08-16T20:16:55.154Z,62.90
2022-08-16T20:19:22.068Z,63.00
2022-08-16T20:21:49.743Z,63.20
2022-08-16T20:24:33.638Z,63.70
2022-08-16T20:27:02.815Z,64.20
2022-08-16T20:29:29.723Z,64.20
2022-08-16T20:31:56.830Z,64.70
2022-08-16T20:34:23.786Z,65.30
2022-08-16T20:36:50.731Z,66.50
2022-08-16T20:39:17.690Z,66.90
2022-08-16T20:41:45.163Z,66.70
2022-08-16T20:44:12.699Z,67.30
2022-08-16T20:46:39.986Z,67.80
2022-08-16T20:49:09.068Z,68.00
2022-08-16T20:51:46.509Z,68.40
2022-08-16T20:54:14.806Z,68.70
2022-08-16T20:56:41.838Z,69.30
2022-08-16T20:59:08.737Z,69.40
2022-08-16T21:01:49.658Z,70.00
2022-08-16T21:04:25.225Z,70.30
2022-08-16T21:06:53.713Z,70.70
2022-08-16T21:09:28.745Z,71.10
2022-08-16T21:11:57.357Z,71.70
2022-08-16T21:14:24.509Z,72.00
2022-08-16T21:16:51.544Z,72.10
2022-08-16T21:19:19.100Z,72.20
2022-08-16T21:21:46.468Z,72.40
2022-08-16T21:24:14.057Z,72.70
2022-08-16T21:26:40.992Z,73.00
2022-08-16T21:29:17.935Z,73.10
2022-08-16T21:31:44.901Z,74.10
2022-08-16T21:34:11.837Z,74.30
2022-08-16T21:36:38.793Z,74.70
2022-08-16T21:39:06.399Z,74.70
2022-08-16T21:41:35.226Z,75.00
2022-08-16T21:44:02.142Z,75.10
2022-08-16T21:46:29.124Z,75.20
2022-08-16T21:48:56.043Z,75.50
2022-08-16T21:51:22.947Z,75.60
2022-08-16T21:53:49.922Z,76.10
2022-08-16T21:56:17.590Z,76.00
2022-08-16T21:58:53.297Z,76.40
2022-08-16T22:01:23.104Z,76.60
2022-08-16T22:04:35.753Z,76.60
2022-08-16T22:06:39.253Z,76.60
2022-08-16T22:09:08.224Z,76.40
2022-08-16T22:11:35.521Z,77.10
2022-08-16T22:14:04.251Z,76.80
2022-08-16T22:16:35.163Z,77.00
2022-08-16T22:19:04.449Z,77.10
2022-08-16T22:21:32.439Z,77.20
2022-08-16T22:23:59.564Z,77.30
2022-08-16T22:26:32.218Z,77.60
2022-08-16T22:29:02.184Z,78.00
2022-08-16T22:31:29.316Z,78.10
2022-08-16T22:33:56.890Z,78.40
2022-08-16T22:36:28.462Z,78.70
2022-08-16T22:39:03.439Z,78.90
2022-08-16T22:41:32.645Z,79.30
2022-08-16T22:44:02.043Z,79.20
2022-08-16T22:46:30.209Z,79.60
2022-08-16T22:48:57.530Z,79.70
2022-08-16T22:51:27.285Z,79.90
2022-08-16T22:53:55.509Z,80.30
2022-08-16T22:56:23.892Z,80.70
2022-08-16T22:58:50.925Z,81.10
2022-08-16T23:01:22.803Z,81.20
2022-08-16T23:03:50.398Z,81.40
2022-08-16T23:06:17.824Z,81.40
2022-08-16T23:08:44.947Z,81.70
2022-08-16T23:11:22.507Z,81.70
2022-08-16T23:13:56.181Z,82.60
2022-08-16T23:16:33.239Z,82.80
2022-08-16T23:19:12.363Z,82.90
2022-08-16T23:21:43.759Z,83.30
2022-08-16T23:24:11.885Z,83.10
2022-08-16T23:26:47.934Z,83.40
2022-08-16T23:29:23.996Z,83.50
2022-08-16T23:32:08.369Z,83.70
2022-08-16T23:34:35.308Z,84.10
2022-08-16T23:37:02.227Z,83.80
2022-08-16T23:39:29.444Z,84.00
2022-08-16T23:41:56.422Z,84.20
2022-08-16T23:44:42.223Z,84.40
2022-08-16T23:47:10.827Z,84.40
2022-08-16T23:49:58.038Z,84.70
2022-08-16T23:52:53.944Z,85.00
2022-08-16T23:55:11.737Z,84.80
2022-08-16T23:57:38.666Z,85.00
